Time;durP1;ratioP1;P1;durP2;ratioP2;P2;SDS_P1;SDS_P2;PMS_P1;PMS_P2;Temp;Humidity;BMP_temperature;BMP_pressure;BME280_temperature;BME280_humidity;BME280_pressure;Samples;Min_cycle;Max_cycle;Signal;HPM_P1;HPM_P2
2022/03/15 00:00:45;;;;;;;;;;;3.70;99.90;;;;;;4193900;28;19958;-51
2022/03/15 00:02:49;;;;;;;;;;;3.70;99.90;;;;;;4194236;28;20019;-51
2022/03/15 00:04:51;;;;;;;;;;;3.60;99.90;;;;;;4194380;28;20434;-50
2022/03/15 00:06:53;;;;;;;;;;;3.40;99.90;;;;;;4193478;28;20404;-50
2022/03/15 00:08:54;;;;;;;;;;;3.30;99.90;;;;;;4194247;28;19929;-51
2022/03/15 00:10:58;;;;;;;;;;;3.30;99.90;;;;;;4194267;28;19936;-51
2022/03/15 00:13:01;;;;;;;;;;;3.30;99.90;;;;;;4192847;28;19955;-48
2022/03/15 00:15:03;;;;;;;;;;;3.30;99.90;;;;;;4193842;28;19924;-48
2022/03/15 00:17:05;;;;;;;;;;;3.20;99.90;;;;;;4192771;28;19934;-47
2022/03/15 00:19:07;;;;;;;;;;;3.20;99.90;;;;;;4193505;28;19924;-47
2022/03/15 00:21:10;;;;;;;;;;;3.10;99.90;;;;;;4193736;28;19971;-48
2022/03/15 00:23:12;;;;;;;;;;;3.10;99.90;;;;;;4194193;28;19932;-48
2022/03/15 00:25:16;;;;;;;;;;;3.20;99.90;;;;;;4193976;28;20208;-49
2022/03/15 00:27:20;;;;;;;;;;;3.20;99.90;;;;;;4194123;28;19931;-49
2022/03/15 00:29:23;;;;;;;;;;;3.30;99.90;;;;;;4193759;28;19994;-49
2022/03/15 00:31:25;;;;;;;;;;;3.10;99.90;;;;;;4193884;28;19975;-48
2022/03/15 00:33:29;;;;;;;;;;;3.00;99.90;;;;;;4194154;28;19933;-49
2022/03/15 00:35:31;;;;;;;;;;;3.00;99.90;;;;;;4193904;28;19928;-48
2022/03/15 00:37:36;;;;;;;;;;;3.20;99.90;;;;;;4194276;28;19925;-48
2022/03/15 00:39:38;;;;;;;;;;;3.30;99.90;;;;;;4194082;28;19924;-48
2022/03/15 00:41:40;;;;;;;;;;;3.40;99.90;;;;;;4193880;28;19924;-47
2022/03/15 00:43:42;;;;;;;;;;;3.30;99.90;;;;;;4194012;28;19936;-48
2022/03/15 00:45:43;;;;;;;;;;;3.20;99.90;;;;;;4193648;28;19924;-49
2022/03/15 00:47:46;;;;;;;;;;;3.20;99.90;;;;;;4193897;28;19952;-51
2022/03/15 00:49:47;;;;;;;;;;;3.20;99.90;;;;;;4194014;28;20423;-47
2022/03/15 00:51:51;;;;;;;;;;;3.30;99.90;;;;;;4193533;28;20335;-48
2022/03/15 00:53:52;;;;;;;;;;;3.30;99.90;;;;;;4194165;28;19924;-49
2022/03/15 00:55:54;;;;;;;;;;;3.30;99.90;;;;;;4193704;28;19951;-48
2022/03/15 00:57:56;;;;;;;;;;;3.30;99.90;;;;;;4193822;28;19987;-49
2022/03/15 00:59:58;;;;;;;;;;;3.40;99.90;;;;;;4196632;28;20000;-48
2022/03/15 01:02:00;;;;;;;;;;;3.40;99.90;;;;;;4197294;28;19935;-48
2022/03/15 01:04:02;;;;;;;;;;;3.30;99.90;;;;;;4196887;28;20454;-48
2022/03/15 01:06:04;;;;;;;;;;;3.10;99.90;;;;;;4197077;28;20598;-48
2022/03/15 01:08:06;;;;;;;;;;;3.10;99.90;;;;;;4197154;28;20497;-51
2022/03/15 01:10:08;;;;;;;;;;;3.10;99.90;;;;;;4196403;28;19950;-49
2022/03/15 01:12:11;;;;;;;;;;;3.00;99.90;;;;;;4197271;28;19929;-49
2022/03/15 01:14:13;;;;;;;;;;;3.00;99.90;;;;;;4197089;28;19924;-50
2022/03/15 01:16:15;;;;;;;;;;;3.00;99.90;;;;;;4196607;28;19935;-48
2022/03/15 01:18:17;;;;;;;;;;;3.00;99.90;;;;;;4196865;28;19928;-49
2022/03/15 01:20:19;;;;;;;;;;;2.80;99.90;;;;;;4196484;28;19931;-49
2022/03/15 01:22:21;;;;;;;;;;;2.90;99.90;;;;;;4196792;28;19924;-47
2022/03/15 01:24:23;;;;;;;;;;;2.80;99.90;;;;;;4196784;28;20405;-50
2022/03/15 01:26:26;;;;;;;;;;;2.70;99.90;;;;;;4196544;28;19974;-49
2022/03/15 01:28:29;;;;;;;;;;;2.70;99.90;;;;;;4180519;28;20023;-48
2022/03/15 01:30:31;;;;;;;;;;;2.50;99.90;;;;;;4195905;28;19924;-48
2022/03/15 01:32:34;;;;;;;;;;;2.40;99.90;;;;;;4196789;28;19924;-50
2022/03/15 01:34:36;;;;;;;;;;;2.30;99.90;;;;;;4196741;28;19929;-50
2022/03/15 01:36:38;;;;;;;;;;;2.30;99.90;;;;;;4196513;28;19931;-50
2022/03/15 01:38:40;;;;;;;;;;;2.40;99.90;;;;;;4196526;28;20375;-49
2022/03/15 01:40:41;;;;;;;;;;;2.50;99.90;;;;;;4196274;28;19929;-49
2022/03/15 01:42:43;;;;;;;;;;;2.60;99.90;;;;;;4196436;28;19928;-49
2022/03/15 01:44:46;;;;;;;;;;;2.70;99.90;;;;;;4196375;28;19967;-47
2022/03/15 01:46:49;;;;;;;;;;;2.70;99.90;;;;;;4196280;28;19924;-50
2022/03/15 01:48:51;;;;;;;;;;;2.80;99.90;;;;;;4200492;28;19936;-49
2022/03/15 01:50:53;;;;;;;;;;;2.80;99.90;;;;;;4196027;28;19998;-49
2022/03/15 01:52:55;;;;;;;;;;;2.70;99.90;;;;;;4196930;28;20397;-47
2022/03/15 01:54:57;;;;;;;;;;;2.50;99.90;;;;;;4196021;28;19928;-49
2022/03/15 01:56:59;;;;;;;;;;;2.50;99.90;;;;;;4195072;28;20269;-48
2022/03/15 01:59:02;;;;;;;;;;;2.70;99.90;;;;;;4196296;28;19970;-50
2022/03/15 02:01:04;;;;;;;;;;;2.50;99.90;;;;;;4196283;28;19924;-51
2022/03/15 02:03:06;;;;;;;;;;;2.60;99.90;;;;;;4196469;28;19939;-49
2022/03/15 02:05:08;;;;;;;;;;;2.60;99.90;;;;;;4196158;28;19936;-48
2022/03/15 02:07:12;;;;;;;;;;;2.50;99.90;;;;;;4195775;28;20011;-50
2022/03/15 02:09:15;;;;;;;;;;;2.40;99.90;;;;;;4195940;28;19933;-50
2022/03/15 02:11:17;;;;;;;;;;;2.40;99.90;;;;;;4195979;28;19924;-50
2022/03/15 02:13:19;;;;;;;;;;;2.40;99.90;;;;;;4196077;28;19936;-49
2022/03/15 02:15:21;;;;;;;;;;;2.20;99.90;;;;;;4195817;28;19970;-48
2022/03/15 02:17:22;;;;;;;;;;;2.10;99.90;;;;;;4195728;28;19931;-50
2022/03/15 02:19:27;;;;;;;;;;;2.00;99.90;;;;;;4196005;28;20175;-51
2022/03/15 02:21:30;;;;;;;;;;;1.90;99.90;;;;;;4196385;28;20284;-48
2022/03/15 02:23:32;;;;;;;;;;;1.90;99.90;;;;;;4195754;28;19975;-48
2022/03/15 02:25:34;;;;;;;;;;;1.90;99.90;;;;;;4195609;28;20358;-48
2022/03/15 02:27:35;;;;;;;;;;;1.80;99.90;;;;;;4195638;28;19963;-51
2022/03/15 02:29:37;;;;;;;;;;;1.80;99.90;;;;;;4195602;28;19933;-47
2022/03/15 02:31:39;;;;;;;;;;;1.80;99.90;;;;;;4195872;28;19924;-48
2022/03/15 02:33:41;;;;;;;;;;;1.80;99.90;;;;;;4195357;28;19960;-47
2022/03/15 02:35:43;;;;;;;;;;;1.80;99.90;;;;;;4195660;28;20443;-50
2022/03/15 02:37:45;;;;;;;;;;;1.90;99.90;;;;;;4195930;28;20460;-48
2022/03/15 02:39:47;;;;;;;;;;;2.00;99.90;;;;;;4188119;28;20018;-49
2022/03/15 02:41:49;;;;;;;;;;;2.00;99.90;;;;;;4195710;28;20058;-48
2022/03/15 02:43:50;;;;;;;;;;;2.00;99.90;;;;;;4195467;28;19928;-50
2022/03/15 02:45:52;;;;;;;;;;;2.10;99.90;;;;;;4195588;28;19924;-50
2022/03/15 02:47:54;;;;;;;;;;;2.10;99.90;;;;;;4195429;28;20296;-49
2022/03/15 02:49:56;;;;;;;;;;;2.00;99.90;;;;;;4195327;28;19982;-51
2022/03/15 02:51:58;;;;;;;;;;;2.00;99.90;;;;;;4195270;28;20363;-49
2022/03/15 02:54:02;;;;;;;;;;;2.00;99.90;;;;;;4195459;28;19982;-49
2022/03/15 02:56:06;;;;;;;;;;;1.90;99.90;;;;;;4195438;28;19924;-49
2022/03/15 02:58:08;;;;;;;;;;;1.90;99.90;;;;;;4195100;28;19929;-48
2022/03/15 03:00:10;;;;;;;;;;;2.00;99.90;;;;;;4195079;28;19935;-48
2022/03/15 03:02:13;;;;;;;;;;;1.90;99.90;;;;;;4195364;28;19939;-51
2022/03/15 03:04:15;;;;;;;;;;;1.70;99.90;;;;;;4195048;28;19968;-48
2022/03/15 03:06:17;;;;;;;;;;;1.60;99.90;;;;;;4196197;28;19967;-47
2022/03/15 03:08:20;;;;;;;;;;;1.60;99.90;;;;;;4195940;28;19936;-51
2022/03/15 03:10:22;;;;;;;;;;;1.60;99.90;;;;;;4195945;28;19924;-47
2022/03/15 03:12:24;;;;;;;;;;;1.60;99.90;;;;;;4195563;28;19979;-48
2022/03/15 03:14:26;;;;;;;;;;;1.70;99.90;;;;;;4195298;28;19936;-50
2022/03/15 03:16:29;;;;;;;;;;;1.60;99.90;;;;;;4194667;28;19929;-48
2022/03/15 03:18:32;;;;;;;;;;;1.60;99.90;;;;;;4194424;28;19924;-51
2022/03/15 03:20:35;;;;;;;;;;;1.60;99.90;;;;;;4195211;28;19925;-50
2022/03/15 03:22:37;;;;;;;;;;;1.60;99.90;;;;;;4194514;28;19964;-51
2022/03/15 03:24:39;;;;;;;;;;;1.60;99.90;;;;;;4195055;28;19934;-49
2022/03/15 03:26:41;;;;;;;;;;;1.50;99.90;;;;;;4195416;28;19947;-48
2022/03/15 03:28:43;;;;;;;;;;;1.50;99.90;;;;;;4195475;28;19924;-49
2022/03/15 03:30:47;;;;;;;;;;;1.60;99.90;;;;;;4195567;28;20381;-49
2022/03/15 03:32:49;;;;;;;;;;;1.50;99.90;;;;;;4196027;28;19931;-48
2022/03/15 03:34:51;;;;;;;;;;;1.40;99.90;;;;;;4195892;28;19929;-50
2022/03/15 03:36:53;;;;;;;;;;;1.50;99.90;;;;;;4195315;28;19978;-51
2022/03/15 03:38:59;;;;;;;;;;;1.50;99.90;;;;;;4195034;28;19994;-48
2022/03/15 03:41:02;;;;;;;;;;;1.60;99.90;;;;;;4195424;28;19928;-49
2022/03/15 03:43:04;;;;;;;;;;;1.70;99.90;;;;;;4195248;28;20001;-50
2022/03/15 03:45:07;;;;;;;;;;;1.70;99.90;;;;;;4195615;28;19929;-50
2022/03/15 03:47:09;;;;;;;;;;;1.70;99.90;;;;;;4195144;28;19963;-50
2022/03/15 03:49:11;;;;;;;;;;;1.60;99.90;;;;;;4195299;28;20022;-50
2022/03/15 03:51:13;;;;;;;;;;;1.50;99.90;;;;;;4195519;28;20300;-49
2022/03/15 03:53:17;;;;;;;;;;;1.40;99.90;;;;;;4195124;28;19925;-48
2022/03/15 03:55:19;;;;;;;;;;;1.30;99.90;;;;;;4195324;28;19925;-50
2022/03/15 03:57:21;;;;;;;;;;;1.30;99.90;;;;;;4194241;28;20335;-49
2022/03/15 03:59:23;;;;;;;;;;;1.20;99.90;;;;;;4195077;28;19966;-49
2022/03/15 04:01:26;;;;;;;;;;;1.10;99.90;;;;;;4195453;28;19932;-50
2022/03/15 04:03:31;;;;;;;;;;;1.00;99.90;;;;;;4194861;28;19955;-51
2022/03/15 04:05:38;;;;;;;;;;;1.00;99.90;;;;;;4195333;28;20292;-49
2022/03/15 04:07:41;;;;;;;;;;;1.10;99.90;;;;;;4200551;28;19979;-50
2022/03/15 04:09:43;;;;;;;;;;;1.10;99.90;;;;;;4193667;28;20347;-48
2022/03/15 04:11:45;;;;;;;;;;;1.10;99.90;;;;;;4193931;28;19925;-50
2022/03/15 04:13:46;;;;;;;;;;;0.90;99.90;;;;;;4195091;28;19993;-50
2022/03/15 04:15:51;;;;;;;;;;;0.80;99.90;;;;;;4193778;28;20350;-48
2022/03/15 04:17:53;;;;;;;;;;;0.80;99.90;;;;;;4194556;28;20018;-49
2022/03/15 04:19:55;;;;;;;;;;;0.80;99.90;;;;;;4194775;28;19982;-50
2022/03/15 04:21:57;;;;;;;;;;;0.80;99.90;;;;;;4194975;28;19925;-51
2022/03/15 04:23:59;;;;;;;;;;;0.80;99.90;;;;;;4194773;28;19928;-51
2022/03/15 04:26:01;;;;;;;;;;;0.80;99.90;;;;;;4195083;28;19986;-50
2022/03/15 04:28:03;;;;;;;;;;;1.00;99.90;;;;;;4194713;28;19924;-47
2022/03/15 04:30:05;;;;;;;;;;;1.00;99.90;;;;;;4194931;28;20077;-51
2022/03/15 04:32:10;;;;;;;;;;;1.00;99.90;;;;;;4194794;28;19928;-50
2022/03/15 04:34:12;;;;;;;;;;;0.90;99.90;;;;;;4194835;28;19951;-51
2022/03/15 04:36:14;;;;;;;;;;;1.10;99.90;;;;;;4195191;28;19929;-51
2022/03/15 04:38:16;;;;;;;;;;;1.20;99.90;;;;;;4194608;28;19928;-49
2022/03/15 04:40:19;;;;;;;;;;;1.30;99.90;;;;;;4194848;28;19929;-48
2022/03/15 04:42:22;;;;;;;;;;;1.40;99.90;;;;;;4194895;28;20388;-50
2022/03/15 04:44:23;;;;;;;;;;;1.30;99.90;;;;;;4194615;28;19986;-51
2022/03/15 04:46:25;;;;;;;;;;;1.40;99.90;;;;;;4194782;28;20327;-50
2022/03/15 04:48:27;;;;;;;;;;;1.40;99.90;;;;;;4194545;28;20035;-48
2022/03/15 04:50:30;;;;;;;;;;;1.40;99.90;;;;;;4194815;28;19925;-47
2022/03/15 04:52:34;;;;;;;;;;;1.20;99.90;;;;;;4194615;28;19986;-47
2022/03/15 04:54:36;;;;;;;;;;;1.10;99.90;;;;;;4194622;28;19973;-49
2022/03/15 04:56:38;;;;;;;;;;;0.90;99.90;;;;;;4195047;28;20396;-47
2022/03/15 04:58:42;;;;;;;;;;;0.90;99.90;;;;;;4189773;28;19928;-50
2022/03/15 05:00:48;;;;;;;;;;;0.90;99.90;;;;;;4192986;28;19987;-47
2022/03/15 05:02:51;;;;;;;;;;;1.00;99.90;;;;;;4193106;28;20463;-50
2022/03/15 05:04:52;;;;;;;;;;;1.10;99.90;;;;;;4194820;28;20424;-47
2022/03/15 05:06:54;;;;;;;;;;;1.00;99.90;;;;;;4193215;28;19970;-49
2022/03/15 05:08:56;;;;;;;;;;;1.00;99.90;;;;;;4194457;28;19932;-48
2022/03/15 05:11:08;;;;;;;;;;;1.00;99.90;;;;;;4194128;28;19931;-46
2022/03/15 05:13:09;;;;;;;;;;;1.10;99.90;;;;;;4194180;28;20388;-47
2022/03/15 05:15:11;;;;;;;;;;;1.10;99.90;;;;;;4194508;28;19925;-48
2022/03/15 05:17:13;;;;;;;;;;;1.10;99.90;;;;;;4194423;28;19924;-49
2022/03/15 05:19:16;;;;;;;;;;;1.00;99.90;;;;;;4194230;28;19984;-49
2022/03/15 05:21:18;;;;;;;;;;;0.90;99.90;;;;;;4194691;28;19924;-49
2022/03/15 05:23:20;;;;;;;;;;;0.90;99.90;;;;;;4194557;28;20322;-47
2022/03/15 05:25:22;;;;;;;;;;;1.00;99.90;;;;;;4183345;28;20438;-48
2022/03/15 05:27:25;;;;;;;;;;;1.00;99.90;;;;;;4194562;28;19924;-49
2022/03/15 05:29:26;;;;;;;;;;;1.00;99.90;;;;;;4194101;28;20045;-49
2022/03/15 05:31:30;;;;;;;;;;;1.00;99.90;;;;;;4194372;28;19924;-50
2022/03/15 05:33:32;;;;;;;;;;;1.10;99.90;;;;;;4194155;28;19978;-50
2022/03/15 05:35:34;;;;;;;;;;;1.00;99.90;;;;;;4194533;28;19924;-50
2022/03/15 05:37:36;;;;;;;;;;;0.90;99.90;;;;;;4194397;28;19935;-48
2022/03/15 05:39:39;;;;;;;;;;;1.10;99.90;;;;;;4194204;28;19990;-48
2022/03/15 05:41:41;;;;;;;;;;;1.20;99.90;;;;;;4194281;28;20474;-51
2022/03/15 05:43:43;;;;;;;;;;;1.20;99.90;;;;;;4193981;28;19925;-47
2022/03/15 05:45:45;;;;;;;;;;;1.20;99.90;;;;;;4196781;28;20336;-49
2022/03/15 05:47:47;;;;;;;;;;;1.20;99.90;;;;;;4196080;28;20412;-49
2022/03/15 05:49:49;;;;;;;;;;;1.20;99.90;;;;;;4197268;28;19936;-49
2022/03/15 05:51:51;;;;;;;;;;;1.20;99.90;;;;;;4197405;28;19924;-50
2022/03/15 05:53:52;;;;;;;;;;;1.10;99.90;;;;;;4197209;28;19956;-47
2022/03/15 05:55:54;;;;;;;;;;;1.00;99.90;;;;;;4197442;28;19960;-50
2022/03/15 05:57:56;;;;;;;;;;;0.90;99.90;;;;;;4197525;28;19928;-49
2022/03/15 05:59:58;;;;;;;;;;;0.80;99.90;;;;;;4197565;28;19974;-51
2022/03/15 06:02:00;;;;;;;;;;;0.90;99.90;;;;;;4195787;28;20392;-50
2022/03/15 06:04:03;;;;;;;;;;;1.00;99.90;;;;;;4197454;28;19989;-51
2022/03/15 06:06:06;;;;;;;;;;;1.10;99.90;;;;;;4197446;28;19928;-49
2022/03/15 06:08:08;;;;;;;;;;;1.10;99.90;;;;;;4195735;28;20420;-50
2022/03/15 06:10:10;;;;;;;;;;;1.20;99.90;;;;;;4196840;28;19928;-48
2022/03/15 06:12:12;;;;;;;;;;;1.20;99.90;;;;;;4198402;28;19955;-51
2022/03/15 06:14:14;;;;;;;;;;;1.20;99.90;;;;;;4197047;28;19935;-48
2022/03/15 06:16:16;;;;;;;;;;;1.10;99.90;;;;;;4196770;28;20300;-50
2022/03/15 06:18:18;;;;;;;;;;;1.10;99.90;;;;;;4196717;28;20015;-50
2022/03/15 06:20:20;;;;;;;;;;;1.20;99.90;;;;;;4196697;28;20003;-49
2022/03/15 06:22:22;;;;;;;;;;;1.40;99.90;;;;;;4196611;28;19925;-48
2022/03/15 06:24:26;;;;;;;;;;;1.60;99.90;;;;;;4198371;28;19925;-50
2022/03/15 06:26:28;;;;;;;;;;;1.60;99.90;;;;;;4196775;28;20442;-47
2022/03/15 06:28:30;;;;;;;;;;;1.70;99.90;;;;;;4196775;28;19925;-49
2022/03/15 06:30:32;;;;;;;;;;;1.70;99.90;;;;;;4196692;28;19929;-48
2022/03/15 06:32:34;;;;;;;;;;;1.80;99.90;;;;;;4196616;28;20026;-49
2022/03/15 06:34:40;;;;;;;;;;;2.00;99.90;;;;;;4202946;28;20422;-50
2022/03/15 06:36:43;;;;;;;;;;;2.00;99.90;;;;;;4196430;28;19928;-50
2022/03/15 06:38:45;;;;;;;;;;;2.10;99.90;;;;;;4196634;28;19931;-50
2022/03/15 06:40:47;;;;;;;;;;;2.20;99.90;;;;;;4195241;28;20027;-48
2022/03/15 06:42:50;;;;;;;;;;;2.30;99.90;;;;;;4196285;28;19970;-48
2022/03/15 06:44:51;;;;;;;;;;;2.40;99.90;;;;;;4195329;28;19975;-48
2022/03/15 06:46:53;;;;;;;;;;;2.40;99.90;;;;;;4195897;28;19932;-49
2022/03/15 06:48:55;;;;;;;;;;;2.50;99.90;;;;;;4195439;28;20193;-50
2022/03/15 06:50:57;;;;;;;;;;;2.50;99.90;;;;;;4194929;28;19929;-51
2022/03/15 06:52:59;;;;;;;;;;;2.60;99.90;;;;;;4196370;28;19924;-48
2022/03/15 06:55:01;;;;;;;;;;;2.60;99.90;;;;;;4192902;28;20006;-50
2022/03/15 06:57:03;;;;;;;;;;;2.70;99.90;;;;;;4195405;28;20415;-47
2022/03/15 06:59:05;;;;;;;;;;;2.80;99.90;;;;;;4192927;28;19924;-49
2022/03/15 07:01:07;;;;;;;;;;;2.90;99.90;;;;;;4196123;28;19976;-48
2022/03/15 07:03:09;;;;;;;;;;;2.90;99.90;;;;;;4193518;28;19928;-46
2022/03/15 07:05:11;;;;;;;;;;;3.00;99.90;;;;;;4194446;28;19931;-47
2022/03/15 07:07:13;;;;;;;;;;;3.10;99.90;;;;;;4195979;28;20381;-51
2022/03/15 07:09:15;;;;;;;;;;;3.20;99.90;;;;;;4196189;28;20350;-50
2022/03/15 07:11:17;;;;;;;;;;;3.10;99.90;;;;;;4195949;28;19982;-49
2022/03/15 07:13:19;;;;;;;;;;;3.10;99.90;;;;;;4195112;28;19987;-49
2022/03/15 07:15:21;;;;;;;;;;;3.10;99.90;;;;;;4196109;28;19928;-50
2022/03/15 07:17:23;;;;;;;;;;;3.20;99.90;;;;;;4195559;28;20309;-47
2022/03/15 07:19:27;;;;;;;;;;;3.10;99.90;;;;;;4195957;28;19954;-50
2022/03/15 07:21:30;;;;;;;;;;;3.10;99.90;;;;;;4196024;28;19925;-50
2022/03/15 07:23:32;;;;;;;;;;;3.00;99.90;;;;;;4195933;28;19924;-50
2022/03/15 07:25:33;;;;;;;;;;;3.00;99.90;;;;;;4195626;28;19925;-47
2022/03/15 07:27:35;;;;;;;;;;;3.00;99.90;;;;;;4196064;28;19968;-48
2022/03/15 07:29:37;;;;;;;;;;;3.10;99.90;;;;;;4194385;28;19975;-49
2022/03/15 07:31:39;;;;;;;;;;;3.20;99.90;;;;;;4195910;28;19947;-48
2022/03/15 07:33:41;;;;;;;;;;;3.20;99.90;;;;;;4196072;28;19955;-50
2022/03/15 07:35:43;;;;;;;;;;;3.30;99.90;;;;;;4195474;28;19971;-48
2022/03/15 07:37:52;;;;;;;;;;;3.40;99.90;;;;;;4195947;28;19971;-51
2022/03/15 07:39:54;;;;;;;;;;;3.60;99.90;;;;;;4201013;28;19931;-50
2022/03/15 07:42:01;;;;;;;;;;;3.70;99.90;;;;;;4195537;28;20024;-50
2022/03/15 07:44:03;;;;;;;;;;;3.80;99.90;;;;;;4195722;28;19947;-50
2022/03/15 07:46:05;;;;;;;;;;;4.00;99.90;;;;;;4195299;28;19950;-50
2022/03/15 07:48:07;;;;;;;;;;;4.10;99.90;;;;;;4195706;28;20046;-50
2022/03/15 07:50:09;;;;;;;;;;;4.30;99.90;;;;;;4195343;28;20383;-50
2022/03/15 07:52:13;;;;;;;;;;;4.40;99.90;;;;;;4195261;28;20014;-50
2022/03/15 07:54:17;;;;;;;;;;;4.60;99.90;;;;;;4195157;28;20457;-50
2022/03/15 07:56:19;;;;;;;;;;;4.70;99.90;;;;;;4195053;28;20463;-51
2022/03/15 07:58:21;;;;;;;;;;;4.80;99.90;;;;;;4195453;28;19925;-51
2022/03/15 08:00:23;;;;;;;;;;;5.00;99.90;;;;;;4195177;28;19963;-48
2022/03/15 08:02:25;;;;;;;;;;;5.00;99.90;;;;;;4195235;28;19928;-49
2022/03/15 08:04:27;;;;;;;;;;;5.00;99.90;;;;;;4195248;28;19956;-51
2022/03/15 08:06:30;;;;;;;;;;;5.00;99.90;;;;;;4195020;28;20227;-47
2022/03/15 08:08:32;;;;;;;;;;;5.00;99.90;;;;;;4194867;28;19928;-48
2022/03/15 08:10:34;;;;;;;;;;;5.00;99.90;;;;;;4194862;28;20399;-48
2022/03/15 08:12:37;;;;;;;;;;;5.00;99.90;;;;;;4195079;28;20203;-48
2022/03/15 08:14:39;;;;;;;;;;;4.90;99.90;;;;;;4195371;28;19928;-48
2022/03/15 08:16:40;;;;;;;;;;;5.00;99.90;;;;;;4194901;28;19967;-50
2022/03/15 08:18:42;;;;;;;;;;;5.00;99.90;;;;;;4194655;28;19924;-49
2022/03/15 08:20:45;;;;;;;;;;;5.00;99.90;;;;;;4194874;28;20014;-49
2022/03/15 08:22:47;;;;;;;;;;;5.10;99.90;;;;;;4195222;28;20491;-50
2022/03/15 08:24:49;;;;;;;;;;;5.10;99.90;;;;;;4195251;28;19924;-49
2022/03/15 08:26:51;;;;;;;;;;;5.20;99.90;;;;;;4194949;28;20407;-50
2022/03/15 08:28:53;;;;;;;;;;;5.20;99.90;;;;;;4195213;28;19967;-50
2022/03/15 08:30:55;;;;;;;;;;;5.30;99.90;;;;;;4194727;28;19925;-51
2022/03/15 08:32:57;;;;;;;;;;;5.30;99.90;;;;;;4195688;28;19928;-49
2022/03/15 08:34:59;;;;;;;;;;;5.40;99.90;;;;;;4194848;28;19925;-50
2022/03/15 08:37:00;;;;;;;;;;;5.40;99.90;;;;;;4194988;28;19925;-48
2022/03/15 08:39:03;;;;;;;;;;;5.50;99.90;;;;;;4195218;28;19928;-49
2022/03/15 08:41:06;;;;;;;;;;;5.60;99.90;;;;;;4194841;28;19928;-50
2022/03/15 08:43:09;;;;;;;;;;;5.70;99.90;;;;;;4195008;28;19935;-47
2022/03/15 08:45:11;;;;;;;;;;;5.80;99.90;;;;;;4193902;28;20019;-49
2022/03/15 08:47:14;;;;;;;;;;;5.90;99.90;;;;;;4194695;28;19928;-49
2022/03/15 08:49:17;;;;;;;;;;;6.00;99.90;;;;;;4194548;28;20156;-47
2022/03/15 08:51:19;;;;;;;;;;;6.10;99.90;;;;;;4194678;28;20308;-49
2022/03/15 08:53:21;;;;;;;;;;;6.20;99.90;;;;;;4194797;28;20411;-50
2022/03/15 08:55:24;;;;;;;;;;;6.20;99.90;;;;;;4194523;28;20392;-49
2022/03/15 08:57:26;;;;;;;;;;;6.20;99.90;;;;;;4194961;28;19928;-50
2022/03/15 08:59:28;;;;;;;;;;;6.30;99.90;;;;;;4194587;28;20352;-50
2022/03/15 09:01:30;;;;;;;;;;;6.40;99.90;;;;;;4194580;28;19924;-49
2022/03/15 09:03:35;;;;;;;;;;;6.50;99.90;;;;;;4194959;28;19925;-51
2022/03/15 09:05:37;;;;;;;;;;;6.50;99.90;;;;;;4195088;28;19939;-49
2022/03/15 09:07:40;;;;;;;;;;;6.60;99.90;;;;;;4195097;28;19932;-48
2022/03/15 09:09:42;;;;;;;;;;;6.70;99.90;;;;;;4194498;28;19929;-47
2022/03/15 09:11:45;;;;;;;;;;;6.70;99.90;;;;;;4194572;28;19924;-49
2022/03/15 09:13:47;;;;;;;;;;;6.90;99.90;;;;;;4194546;28;20424;-49
2022/03/15 09:15:49;;;;;;;;;;;6.90;99.90;;;;;;4194382;28;20388;-50
2022/03/15 09:17:51;;;;;;;;;;;7.00;99.90;;;;;;4194365;28;20389;-48
2022/03/15 09:19:57;;;;;;;;;;;7.00;99.90;;;;;;4195955;28;19951;-49
2022/03/15 09:22:03;;;;;;;;;;;7.20;99.90;;;;;;4197928;28;20175;-51
2022/03/15 09:24:06;;;;;;;;;;;7.30;99.90;;;;;;4197805;28;20438;-48
2022/03/15 09:26:07;;;;;;;;;;;7.40;99.90;;;;;;4197661;28;19929;-47
2022/03/15 09:28:10;;;;;;;;;;;7.60;99.90;;;;;;4197761;28;19925;-49
2022/03/15 09:30:12;;;;;;;;;;;7.70;99.90;;;;;;4197493;28;19951;-47
2022/03/15 09:32:15;;;;;;;;;;;7.90;99.90;;;;;;4197997;28;19924;-47
2022/03/15 09:34:18;;;;;;;;;;;8.00;99.90;;;;;;4197531;28;19935;-47
2022/03/15 09:36:19;;;;;;;;;;;8.10;99.90;;;;;;4197668;28;19929;-48
2022/03/15 09:38:22;;;;;;;;;;;8.20;99.90;;;;;;4197865;28;19928;-47
2022/03/15 09:40:25;;;;;;;;;;;8.20;99.90;;;;;;4197768;28;19932;-47
2022/03/15 09:42:28;;;;;;;;;;;8.20;99.90;;;;;;4197579;28;19924;-47
2022/03/15 09:44:30;;;;;;;;;;;8.20;99.90;;;;;;4197224;28;19978;-46
2022/03/15 09:46:35;;;;;;;;;;;8.30;99.90;;;;;;4197708;28;19928;-46
2022/03/15 09:48:57;;;;;;;;;;;8.30;99.90;;;;;;4197952;28;19966;-46
2022/03/15 09:51:00;;;;;;;;;;;8.40;99.90;;;;;;4197366;28;20336;-46
2022/03/15 09:53:02;;;;;;;;;;;8.50;99.90;;;;;;4197509;28;20323;-51
2022/03/15 09:55:04;;;;;;;;;;;8.60;99.90;;;;;;4197317;28;19970;-51
2022/03/15 09:57:06;;;;;;;;;;;8.70;99.90;;;;;;4197180;28;19936;-49
2022/03/15 09:59:16;;;;;;;;;;;8.80;99.90;;;;;;4197469;28;20450;-48
2022/03/15 10:01:18;;;;;;;;;;;8.90;99.90;;;;;;4196604;28;20026;-48
2022/03/15 10:03:21;;;;;;;;;;;9.00;99.90;;;;;;4197138;28;20455;-50
2022/03/15 10:05:24;;;;;;;;;;;9.20;99.90;;;;;;4194980;28;19928;-50
2022/03/15 10:07:25;;;;;;;;;;;9.50;99.90;;;;;;4197163;28;19924;-48
2022/03/15 10:09:27;;;;;;;;;;;9.60;99.90;;;;;;4197146;28;19928;-48
2022/03/15 10:11:30;;;;;;;;;;;9.80;99.90;;;;;;4196941;28;19979;-49
2022/03/15 10:13:36;;;;;;;;;;;9.80;99.90;;;;;;4196886;28;19984;-47
2022/03/15 10:15:38;;;;;;;;;;;10.20;99.90;;;;;;4196195;28;19932;-49
2022/03/15 10:17:44;;;;;;;;;;;10.30;99.90;;;;;;4196254;28;19963;-49
2022/03/15 10:19:53;;;;;;;;;;;10.50;99.90;;;;;;4194351;28;20205;-50
2022/03/15 10:21:56;;;;;;;;;;;10.60;99.90;;;;;;4196982;28;19936;-49
2022/03/15 10:23:58;;;;;;;;;;;11.00;99.90;;;;;;4197190;28;19928;-49
2022/03/15 10:26:00;;;;;;;;;;;11.10;99.90;;;;;;4196739;28;19928;-50
2022/03/15 10:28:06;;;;;;;;;;;11.30;99.90;;;;;;4196999;28;19925;-50
2022/03/15 10:30:08;;;;;;;;;;;11.60;99.90;;;;;;4195103;28;19932;-48
2022/03/15 10:32:10;;;;;;;;;;;12.30;99.90;;;;;;4196663;28;19932;-49
2022/03/15 10:34:13;;;;;;;;;;;12.60;99.90;;;;;;4196751;28;19975;-50
2022/03/15 10:36:16;;;;;;;;;;;12.80;99.90;;;;;;4195366;28;20335;-48
2022/03/15 10:38:18;;;;;;;;;;;13.00;99.90;;;;;;4196948;28;19959;-50
2022/03/15 10:40:30;;;;;;;;;;;13.20;99.90;;;;;;4196570;28;20396;-50
2022/03/15 10:42:37;;;;;;;;;;;13.60;99.50;;;;;;4196606;28;19925;-48
2022/03/15 10:44:39;;;;;;;;;;;13.80;99.40;;;;;;4196453;28;19971;-50
2022/03/15 10:46:41;;;;;;;;;;;13.70;98.30;;;;;;4196328;28;19928;-50
2022/03/15 10:48:44;;;;;;;;;;;13.50;95.20;;;;;;4190417;28;19982;-51
2022/03/15 10:50:56;;;;;;;;;;;13.40;96.90;;;;;;4196180;28;19924;-47
2022/03/15 10:53:06;;;;;;;;;;;13.80;95.60;;;;;;4196399;28;19928;-47
2022/03/15 10:55:13;;;;;;;;;;;14.00;95.20;;;;;;4185982;28;19948;-48
2022/03/15 10:57:15;;;;;;;;;;;14.20;94.80;;;;;;4196370;28;19966;-47
2022/03/15 10:59:19;;;;;;;;;;;13.80;90.70;;;;;;4196505;28;19928;-48
2022/03/15 11:01:24;;;;;;;;;;;13.80;91.80;;;;;;4194493;28;20347;-44
2022/03/15 11:03:29;;;;;;;;;;;13.90;93.10;;;;;;4199606;28;19941;-45
2022/03/15 11:05:33;;;;;;;;;;;14.30;91.70;;;;;;4194442;28;19924;-48
2022/03/15 11:07:38;;;;;;;;;;;14.00;90.80;;;;;;4191973;28;19924;-48
2022/03/15 11:09:40;;;;;;;;;;;14.10;92.30;;;;;;4192275;28;19982;-46
2022/03/15 11:12:04;;;;;;;;;;;14.70;91.90;;;;;;4199967;28;19978;-46
2022/03/15 11:14:06;;;;;;;;;;;14.50;90.50;;;;;;4196107;28;19990;-46
2022/03/15 11:16:08;;;;;;;;;;;14.80;90.80;;;;;;4194959;28;20115;-46
2022/03/15 11:18:11;;;;;;;;;;;15.00;89.60;;;;;;4195032;28;19929;-46
2022/03/15 11:20:15;;;;;;;;;;;14.60;83.40;;;;;;4190045;28;19928;-48
2022/03/15 11:22:20;;;;;;;;;;;14.60;84.40;;;;;;4192482;28;19931;-45
2022/03/15 11:24:25;;;;;;;;;;;15.10;90.00;;;;;;4185991;28;20104;-47
2022/03/15 11:26:29;;;;;;;;;;;15.30;82.80;;;;;;4192885;28;19931;-48
2022/03/15 11:28:32;;;;;;;;;;;14.40;79.30;;;;;;4199485;28;21041;-46
2022/03/15 11:30:34;;;;;;;;;;;14.60;78.10;;;;;;4186111;28;19928;-48
2022/03/15 11:32:37;;;;;;;;;;;14.70;80.00;;;;;;4184979;28;20468;-48
2022/03/15 11:34:40;;;;;;;;;;;14.80;78.60;;;;;;4190992;28;20310;-45
2022/03/15 11:36:42;;;;;;;;;;;15.10;83.20;;;;;;4199390;28;19928;-46
2022/03/15 11:38:44;;;;;;;;;;;15.10;80.40;;;;;;4187963;28;19933;-48
2022/03/15 11:40:54;;;;;;;;;;;15.10;80.10;;;;;;4181958;28;20265;-47
2022/03/15 11:43:16;;;;;;;;;;;14.50;76.10;;;;;;4192955;28;20023;-45
2022/03/15 11:45:29;;;;;;;;;;;14.50;77.20;;;;;;4197139;28;19962;-47
2022/03/15 11:47:55;;;;;;;;;;;15.00;78.50;;;;;;4191932;28;20420;-46
2022/03/15 11:50:01;;;;;;;;;;;15.10;78.50;;;;;;4193091;28;19932;-46
2022/03/15 11:52:09;;;;;;;;;;;14.80;78.10;;;;;;4186643;28;19929;-45
2022/03/15 11:54:20;;;;;;;;;;;15.50;77.90;;;;;;4187769;28;19929;-45
2022/03/15 11:56:31;;;;;;;;;;;15.40;80.10;;;;;;4192945;28;19972;-46
2022/03/15 11:58:34;;;;;;;;;;;15.50;78.30;;;;;;4190739;28;20304;-48
2022/03/15 12:00:44;;;;;;;;;;;15.10;77.60;;;;;;4190200;28;19948;-46
2022/03/15 12:02:47;;;;;;;;;;;15.10;78.00;;;;;;4197731;28;20340;-45
2022/03/15 12:04:49;;;;;;;;;;;15.10;78.90;;;;;;4191075;28;19928;-48